CTN341 LQSA-LDZA
Flight info
| Callsign | CTN341 |
|---|---|
| Flight time | 0h 37m |
| Altitude | 20000 |
| Route | BOSNA L608 KOMAR L187 TEBLI |
| Aircraft | A20N/M-SDE2E3FGHIRWXY/LB1 |
Departure
| Time | 2026-04-29 09:22 |
|---|---|
| Airport | Sarajevo International Airport (LQSA) |
Arrival
| Time | 2026-04-29 09:59 |
|---|---|
| Airport | Zagreb Franjo Tuđman International Airport (LDZA) |
| Time | Latitude | Longitude | Altitude | Speed | Heading |
|---|---|---|---|---|---|
| 2026-04-29 09:07 | 43.82544 | 18.33625 | 1687 ft | 0 kts | 30° |
| 2026-04-29 09:13 | 43.82535 | 18.33617 | 1688 ft | 2 kts | 29° |
| 2026-04-29 09:13 | 43.82522 | 18.33607 | 1687 ft | 2 kts | 30° |
| 2026-04-29 09:14 | 43.82509 | 18.33596 | 1687 ft | 2 kts | 30° |
| 2026-04-29 09:14 | 43.82496 | 18.33584 | 1687 ft | 2 kts | 53° |
| 2026-04-29 09:14 | 43.82489 | 18.33565 | 1687 ft | 2 kts | 79° |
| 2026-04-29 09:14 | 43.82489 | 18.33545 | 1686 ft | 2 kts | 105° |
| 2026-04-29 09:15 | 43.82492 | 18.33535 | 1686 ft | 1 kts | 122° |
| 2026-04-29 09:15 | 43.82495 | 18.33528 | 1686 ft | 0 kts | 118° |
| 2026-04-29 09:15 | 43.82495 | 18.33529 | 1686 ft | 0 kts | 118° |
| 2026-04-29 09:17 | 43.82494 | 18.33529 | 1686 ft | 0 kts | 117° |
| 2026-04-29 09:17 | 43.82482 | 18.33562 | 1687 ft | 6 kts | 117° |
| 2026-04-29 09:17 | 43.82453 | 18.33641 | 1688 ft | 10 kts | 116° |
| 2026-04-29 09:17 | 43.82420 | 18.33731 | 1690 ft | 10 kts | 117° |
| 2026-04-29 09:18 | 43.82388 | 18.33814 | 1692 ft | 9 kts | 117° |
| 2026-04-29 09:18 | 43.82358 | 18.33895 | 1693 ft | 9 kts | 117° |
| 2026-04-29 09:18 | 43.82330 | 18.33968 | 1695 ft | 8 kts | 117° |
| 2026-04-29 09:18 | 43.82296 | 18.34061 | 1698 ft | 11 kts | 117° |
| 2026-04-29 09:19 | 43.82263 | 18.34149 | 1700 ft | 9 kts | 117° |
| 2026-04-29 09:19 | 43.82228 | 18.34243 | 1703 ft | 11 kts | 117° |
| 2026-04-29 09:19 | 43.82194 | 18.34333 | 1706 ft | 9 kts | 117° |
| 2026-04-29 09:19 | 43.82166 | 18.34407 | 1709 ft | 7 kts | 117° |
| 2026-04-29 09:20 | 43.82142 | 18.34473 | 1712 ft | 8 kts | 117° |
| 2026-04-29 09:20 | 43.82107 | 18.34563 | 1715 ft | 12 kts | 125° |
| 2026-04-29 09:20 | 43.82028 | 18.34625 | 1718 ft | 13 kts | 179° |
| 2026-04-29 09:20 | 43.81946 | 18.34567 | 1718 ft | 14 kts | 245° |
| 2026-04-29 09:21 | 43.81962 | 18.34470 | 1715 ft | 0 kts | 295° |
| 2026-04-29 09:21 | 43.81972 | 18.34441 | 1714 ft | 6 kts | 296° |
| 2026-04-29 09:21 | 43.82113 | 18.34072 | 1700 ft | 83 kts | 296° |
| 2026-04-29 09:21 | 43.82489 | 18.33067 | 1679 ft | 149 kts | 297° |
| 2026-04-29 09:22 | 43.83021 | 18.31629 | 1968 ft | 174 kts | 297° |
| 2026-04-29 09:22 | 43.83596 | 18.30197 | 2724 ft | 172 kts | 313° |
| 2026-04-29 09:22 | 43.84586 | 18.29452 | 3478 ft | 167 kts | 347° |
| 2026-04-29 09:22 | 43.85750 | 18.29160 | 4033 ft | 179 kts | 351° |
| 2026-04-29 09:23 | 43.87033 | 18.28835 | 4544 ft | 196 kts | 348° |
| 2026-04-29 09:23 | 43.88412 | 18.28398 | 5059 ft | 214 kts | 345° |
| 2026-04-29 09:23 | 43.89939 | 18.27842 | 5484 ft | 238 kts | 343° |
| 2026-04-29 09:23 | 43.91561 | 18.27209 | 6196 ft | 250 kts | 343° |
| 2026-04-29 09:24 | 43.93244 | 18.26537 | 7126 ft | 253 kts | 342° |
| 2026-04-29 09:24 | 43.94924 | 18.25932 | 8055 ft | 256 kts | 346° |
| 2026-04-29 09:24 | 43.96693 | 18.25530 | 8864 ft | 264 kts | 351° |
| 2026-04-29 09:24 | 43.98553 | 18.25261 | 9428 ft | 280 kts | 352° |
| 2026-04-29 09:25 | 44.00511 | 18.25009 | 10209 ft | 287 kts | 352° |
| 2026-04-29 09:25 | 44.02491 | 18.24758 | 11113 ft | 289 kts | 352° |
| 2026-04-29 09:25 | 44.04485 | 18.24497 | 12007 ft | 291 kts | 350° |
| 2026-04-29 09:25 | 44.06423 | 18.23754 | 12851 ft | 289 kts | 330° |
| 2026-04-29 09:26 | 44.08037 | 18.22115 | 13543 ft | 293 kts | 312° |
| 2026-04-29 09:26 | 44.09432 | 18.19957 | 13971 ft | 309 kts | 309° |
| 2026-04-29 09:26 | 44.10866 | 18.17657 | 14356 ft | 327 kts | 309° |
| 2026-04-29 09:26 | 44.12403 | 18.15194 | 14686 ft | 345 kts | 309° |
| 2026-04-29 09:27 | 44.14001 | 18.12646 | 15020 ft | 361 kts | 310° |
| 2026-04-29 09:27 | 44.15686 | 18.09971 | 15600 ft | 369 kts | 310° |
| 2026-04-29 09:27 | 44.17369 | 18.07304 | 16345 ft | 370 kts | 310° |
| 2026-04-29 09:27 | 44.19072 | 18.04606 | 17068 ft | 372 kts | 310° |
| 2026-04-29 09:28 | 44.20771 | 18.01911 | 17663 ft | 377 kts | 310° |
| 2026-04-29 09:28 | 44.22516 | 17.99143 | 18161 ft | 383 kts | 310° |
| 2026-04-29 09:28 | 44.24277 | 17.96346 | 18789 ft | 387 kts | 310° |
| 2026-04-29 09:28 | 44.26058 | 17.93515 | 19396 ft | 390 kts | 310° |
| 2026-04-29 09:29 | 44.27840 | 17.90678 | 19907 ft | 393 kts | 310° |
| 2026-04-29 09:29 | 44.31431 | 17.84958 | 20135 ft | 393 kts | 310° |
| 2026-04-29 09:29 | 44.33231 | 17.82087 | 20122 ft | 393 kts | 310° |
| 2026-04-29 09:30 | 44.35041 | 17.79192 | 20125 ft | 393 kts | 310° |
| 2026-04-29 09:30 | 44.36829 | 17.76333 | 20129 ft | 393 kts | 310° |
| 2026-04-29 09:30 | 44.38626 | 17.73450 | 20137 ft | 393 kts | 310° |
| 2026-04-29 09:30 | 44.40411 | 17.70572 | 20122 ft | 393 kts | 310° |
| 2026-04-29 09:31 | 44.42185 | 17.67707 | 20119 ft | 394 kts | 310° |
| 2026-04-29 09:31 | 44.43988 | 17.64794 | 20137 ft | 394 kts | 310° |
| 2026-04-29 09:31 | 44.45776 | 17.61902 | 20137 ft | 394 kts | 310° |
| 2026-04-29 09:31 | 44.47543 | 17.59041 | 20134 ft | 393 kts | 310° |
| 2026-04-29 09:32 | 44.49336 | 17.56134 | 20117 ft | 393 kts | 310° |
| 2026-04-29 09:32 | 44.51115 | 17.53245 | 20113 ft | 393 kts | 310° |
| 2026-04-29 09:32 | 44.52884 | 17.50373 | 20122 ft | 393 kts | 310° |
| 2026-04-29 09:32 | 44.54670 | 17.47469 | 20140 ft | 393 kts | 309° |
| 2026-04-29 09:33 | 44.56454 | 17.44564 | 20134 ft | 393 kts | 310° |
| 2026-04-29 09:33 | 44.58241 | 17.41649 | 20135 ft | 393 kts | 310° |
| 2026-04-29 09:33 | 44.60022 | 17.38743 | 20136 ft | 393 kts | 310° |
| 2026-04-29 09:33 | 44.61812 | 17.35820 | 20141 ft | 393 kts | 309° |
| 2026-04-29 09:34 | 44.63569 | 17.32949 | 20124 ft | 393 kts | 309° |
| 2026-04-29 09:34 | 44.65363 | 17.30050 | 20139 ft | 393 kts | 309° |
| 2026-04-29 09:34 | 44.67167 | 17.27139 | 20154 ft | 393 kts | 309° |
| 2026-04-29 09:34 | 44.68951 | 17.24260 | 20137 ft | 393 kts | 309° |
| 2026-04-29 09:35 | 44.70752 | 17.21349 | 20142 ft | 393 kts | 309° |
| 2026-04-29 09:35 | 44.72537 | 17.18459 | 20157 ft | 393 kts | 309° |
| 2026-04-29 09:35 | 44.74307 | 17.15587 | 20146 ft | 393 kts | 309° |
| 2026-04-29 09:35 | 44.76093 | 17.12685 | 20117 ft | 393 kts | 309° |
| 2026-04-29 09:36 | 44.77892 | 17.09761 | 20146 ft | 393 kts | 309° |
| 2026-04-29 09:36 | 44.79682 | 17.06849 | 20157 ft | 393 kts | 309° |
| 2026-04-29 09:36 | 44.81444 | 17.03976 | 20162 ft | 392 kts | 309° |
| 2026-04-29 09:36 | 44.83237 | 17.01057 | 20149 ft | 393 kts | 309° |
| 2026-04-29 09:37 | 44.85019 | 16.98145 | 20142 ft | 393 kts | 309° |
| 2026-04-29 09:37 | 44.86803 | 16.95220 | 20130 ft | 393 kts | 309° |
| 2026-04-29 09:37 | 44.88567 | 16.92322 | 20157 ft | 393 kts | 309° |
| 2026-04-29 09:37 | 44.90339 | 16.89413 | 20141 ft | 393 kts | 309° |
| 2026-04-29 09:38 | 44.92130 | 16.86467 | 20122 ft | 394 kts | 309° |
| 2026-04-29 09:38 | 44.93948 | 16.83628 | 20125 ft | 395 kts | 314° |
| 2026-04-29 09:38 | 44.96080 | 16.81138 | 19888 ft | 396 kts | 322° |
| 2026-04-29 09:38 | 44.98442 | 16.79168 | 19629 ft | 397 kts | 331° |
| 2026-04-29 09:39 | 45.00988 | 16.77658 | 19387 ft | 398 kts | 335° |
| 2026-04-29 09:39 | 45.03561 | 16.76295 | 19131 ft | 397 kts | 336° |
| 2026-04-29 09:39 | 45.06156 | 16.74947 | 18887 ft | 396 kts | 336° |
| 2026-04-29 09:39 | 45.08738 | 16.73601 | 18652 ft | 395 kts | 336° |
| 2026-04-29 09:40 | 45.11303 | 16.72255 | 18379 ft | 393 kts | 336° |
| 2026-04-29 09:40 | 45.13839 | 16.70921 | 18138 ft | 392 kts | 336° |
| 2026-04-29 09:40 | 45.16394 | 16.69572 | 17829 ft | 391 kts | 336° |
| 2026-04-29 09:40 | 45.18866 | 16.68024 | 17407 ft | 387 kts | 329° |
| 2026-04-29 09:41 | 45.21118 | 16.66049 | 16867 ft | 381 kts | 322° |
| 2026-04-29 09:41 | 45.23146 | 16.63703 | 16314 ft | 376 kts | 316° |
| 2026-04-29 09:41 | 45.25071 | 16.61209 | 15878 ft | 368 kts | 315° |
| 2026-04-29 09:41 | 45.26908 | 16.58803 | 15595 ft | 356 kts | 316° |
| 2026-04-29 09:42 | 45.28695 | 16.56452 | 15292 ft | 346 kts | 315° |
| 2026-04-29 09:42 | 45.30426 | 16.54179 | 15007 ft | 335 kts | 315° |
| 2026-04-29 09:42 | 45.32109 | 16.51975 | 14789 ft | 324 kts | 316° |
| 2026-04-29 09:42 | 45.33726 | 16.49856 | 14585 ft | 304 kts | 315° |
| 2026-04-29 09:43 | 45.35220 | 16.47890 | 14444 ft | 284 kts | 313° |
| 2026-04-29 09:43 | 45.36318 | 16.45671 | 14263 ft | 274 kts | 290° |
| 2026-04-29 09:43 | 45.36652 | 16.43071 | 14104 ft | 269 kts | 269° |
| 2026-04-29 09:43 | 45.36251 | 16.40483 | 13747 ft | 273 kts | 248° |
| 2026-04-29 09:44 | 45.35161 | 16.38268 | 13379 ft | 277 kts | 231° |
| 2026-04-29 09:44 | 45.33837 | 16.36255 | 12957 ft | 280 kts | 231° |
| 2026-04-29 09:44 | 45.32516 | 16.34254 | 12503 ft | 283 kts | 230° |
| 2026-04-29 09:44 | 45.31160 | 16.32198 | 12092 ft | 283 kts | 230° |
| 2026-04-29 09:45 | 45.29827 | 16.30170 | 11714 ft | 283 kts | 230° |
| 2026-04-29 09:45 | 45.28485 | 16.28127 | 11351 ft | 281 kts | 230° |
| 2026-04-29 09:45 | 45.27167 | 16.26123 | 11004 ft | 280 kts | 230° |
| 2026-04-29 09:45 | 45.25840 | 16.24106 | 10650 ft | 279 kts | 230° |
| 2026-04-29 09:46 | 45.24580 | 16.22047 | 10264 ft | 276 kts | 239° |
| 2026-04-29 09:46 | 45.23976 | 16.19509 | 9875 ft | 271 kts | 268° |
| 2026-04-29 09:46 | 45.24252 | 16.16936 | 9520 ft | 269 kts | 292° |
| 2026-04-29 09:46 | 45.25292 | 16.14754 | 9169 ft | 269 kts | 314° |
| 2026-04-29 09:47 | 45.26661 | 16.12955 | 8837 ft | 267 kts | 316° |
| 2026-04-29 09:47 | 45.28021 | 16.11183 | 8504 ft | 266 kts | 316° |
| 2026-04-29 09:47 | 45.29381 | 16.09398 | 8167 ft | 265 kts | 316° |
| 2026-04-29 09:47 | 45.30722 | 16.07624 | 7868 ft | 264 kts | 317° |
| 2026-04-29 09:48 | 45.32076 | 16.05827 | 7871 ft | 272 kts | 317° |
| 2026-04-29 09:48 | 45.33467 | 16.03979 | 7884 ft | 274 kts | 316° |
| 2026-04-29 09:48 | 45.34855 | 16.02135 | 7911 ft | 274 kts | 317° |
| 2026-04-29 09:48 | 45.36241 | 16.00283 | 7760 ft | 276 kts | 317° |
| 2026-04-29 09:49 | 45.37645 | 15.98411 | 7365 ft | 276 kts | 317° |
| 2026-04-29 09:49 | 45.39043 | 15.96543 | 6999 ft | 275 kts | 317° |
| 2026-04-29 09:49 | 45.40424 | 15.94697 | 6646 ft | 274 kts | 318° |
| 2026-04-29 09:49 | 45.41804 | 15.92850 | 6299 ft | 272 kts | 317° |
| 2026-04-29 09:50 | 45.43169 | 15.91025 | 5971 ft | 270 kts | 317° |
| 2026-04-29 09:50 | 45.44529 | 15.89202 | 5654 ft | 267 kts | 318° |
| 2026-04-29 09:50 | 45.45881 | 15.87388 | 5332 ft | 265 kts | 317° |
| 2026-04-29 09:50 | 45.47215 | 15.85596 | 5017 ft | 262 kts | 319° |
| 2026-04-29 09:51 | 45.48533 | 15.83827 | 4705 ft | 260 kts | 319° |
| 2026-04-29 09:51 | 45.49839 | 15.82075 | 4402 ft | 258 kts | 319° |
| 2026-04-29 09:51 | 45.51128 | 15.80343 | 4095 ft | 256 kts | 319° |
| 2026-04-29 09:51 | 45.52428 | 15.78632 | 3936 ft | 246 kts | 324° |
| 2026-04-29 09:52 | 45.53889 | 15.77749 | 3921 ft | 224 kts | 1° |
| 2026-04-29 09:52 | 45.55331 | 15.78241 | 3787 ft | 212 kts | 34° |
| 2026-04-29 09:52 | 45.56424 | 15.79574 | 3612 ft | 205 kts | 46° |
| 2026-04-29 09:52 | 45.57399 | 15.81044 | 3423 ft | 199 kts | 48° |
| 2026-04-29 09:53 | 45.58323 | 15.82484 | 3244 ft | 193 kts | 48° |
| 2026-04-29 09:53 | 45.59214 | 15.83870 | 3079 ft | 187 kts | 47° |
| 2026-04-29 09:53 | 45.60082 | 15.85213 | 2999 ft | 181 kts | 47° |
| 2026-04-29 09:53 | 45.60900 | 15.86469 | 2993 ft | 163 kts | 47° |
| 2026-04-29 09:54 | 45.61621 | 15.87572 | 2925 ft | 142 kts | 47° |
| 2026-04-29 09:54 | 45.62260 | 15.88548 | 2942 ft | 129 kts | 47° |
| 2026-04-29 09:54 | 45.62870 | 15.89479 | 2941 ft | 127 kts | 47° |
| 2026-04-29 09:54 | 45.63467 | 15.90388 | 2950 ft | 126 kts | 48° |
| 2026-04-29 09:55 | 45.64075 | 15.91316 | 2935 ft | 127 kts | 47° |
| 2026-04-29 09:55 | 45.64677 | 15.92232 | 2769 ft | 126 kts | 48° |
| 2026-04-29 09:55 | 45.65275 | 15.93142 | 2608 ft | 126 kts | 48° |
| 2026-04-29 09:55 | 45.65872 | 15.94053 | 2445 ft | 125 kts | 47° |
| 2026-04-29 09:56 | 45.66469 | 15.94963 | 2274 ft | 125 kts | 46° |
| 2026-04-29 09:56 | 45.67064 | 15.95871 | 2109 ft | 125 kts | 46° |
| 2026-04-29 09:56 | 45.67655 | 15.96769 | 1944 ft | 124 kts | 46° |
| 2026-04-29 09:56 | 45.68245 | 15.97669 | 1778 ft | 124 kts | 47° |
| 2026-04-29 09:57 | 45.68840 | 15.98575 | 1612 ft | 124 kts | 46° |
| 2026-04-29 09:57 | 45.69425 | 15.99465 | 1445 ft | 123 kts | 46° |
| 2026-04-29 09:57 | 45.70015 | 16.00364 | 1276 ft | 123 kts | 46° |
| 2026-04-29 09:57 | 45.70595 | 16.01249 | 1111 ft | 123 kts | 46° |
| 2026-04-29 09:58 | 45.71183 | 16.02145 | 946 ft | 122 kts | 46° |
| 2026-04-29 09:58 | 45.71765 | 16.03031 | 785 ft | 122 kts | 46° |
| 2026-04-29 09:58 | 45.72346 | 16.03923 | 620 ft | 122 kts | 47° |
| 2026-04-29 09:58 | 45.72926 | 16.04803 | 463 ft | 121 kts | 46° |
| 2026-04-29 09:59 | 45.73507 | 16.05686 | 355 ft | 120 kts | 46° |
| 2026-04-29 09:59 | 45.74005 | 16.06440 | 350 ft | 84 kts | 46° |
| 2026-04-29 09:59 | 45.74347 | 16.06960 | 347 ft | 61 kts | 46° |
| 2026-04-29 09:59 | 45.74554 | 16.07278 | 346 ft | 35 kts | 47° |
| 2026-04-29 10:00 | 45.74656 | 16.07534 | 347 ft | 23 kts | 121° |
| 2026-04-29 10:00 | 45.74578 | 16.07650 | 349 ft | 13 kts | 137° |
| 2026-04-29 10:00 | 45.74507 | 16.07744 | 350 ft | 14 kts | 137° |
| 2026-04-29 10:00 | 45.74432 | 16.07845 | 350 ft | 15 kts | 136° |
| 2026-04-29 10:01 | 45.74350 | 16.07930 | 352 ft | 14 kts | 139° |
| 2026-04-29 10:01 | 45.74294 | 16.08003 | 353 ft | 4 kts | 137° |
| 2026-04-29 10:01 | 45.74286 | 16.08014 | 353 ft | 0 kts | 137° |